Time;durP1;ratioP1;P1;durP2;ratioP2;P2;SDS_P1;SDS_P2;PMS_P1;PMS_P2;Temp;Humidity;BMP_temperature;BMP_pressure;BME280_temperature;BME280_humidity;BME280_pressure;Samples;Min_cycle;Max_cycle;Signal;HPM_P1;HPM_P2
2022/08/09 00:02:23;;;;;;;4.03;3.28;;;;;;;;;;5018484;28;20060;-86
2022/08/09 00:04:49;;;;;;;4.95;3.40;;;;;;;;;;5023768;28;20080;-85
2022/08/09 00:07:15;;;;;;;3.90;3.20;;;;;;;;;;5017492;28;20104;-85
2022/08/09 00:09:41;;;;;;;6.90;3.50;;;;;;;;;;5019255;28;20034;-84
2022/08/09 00:12:08;;;;;;;4.60;3.50;;;;;;;;;;5015693;28;20430;-87
2022/08/09 00:14:33;;;;;;;4.22;3.60;;;;;;;;;;5004953;28;20120;-86
2022/08/09 00:16:59;;;;;;;5.65;3.75;;;;;;;;;;5019936;28;20104;-87
2022/08/09 00:19:24;;;;;;;4.30;3.50;;;;;;;;;;5022899;28;20025;-87
2022/08/09 00:21:50;;;;;;;7.10;3.78;;;;;;;;;;5015559;28;20060;-86
2022/08/09 00:24:15;;;;;;;6.70;3.22;;;;;;;;;;5019519;28;20038;-87
2022/08/09 00:26:41;;;;;;;5.35;3.38;;;;;;;;;;5009049;28;20029;-85
2022/08/09 00:29:07;;;;;;;7.00;3.67;;;;;;;;;;5021842;28;20481;-85
2022/08/09 00:31:33;;;;;;;4.32;3.30;;;;;;;;;;5020352;28;20033;-86
2022/08/09 00:33:58;;;;;;;5.20;3.47;;;;;;;;;;5017521;28;20037;-87
2022/08/09 00:36:25;;;;;;;6.43;3.75;;;;;;;;;;5016754;28;20137;-84
2022/08/09 00:38:50;;;;;;;4.30;3.28;;;;;;;;;;5018671;28;20123;-83
2022/08/09 00:41:19;;;;;;;3.70;3.03;;;;;;;;;;5022840;28;20108;-85
2022/08/09 00:43:45;;;;;;;4.15;3.30;;;;;;;;;;5018795;28;20057;-83
2022/08/09 00:46:11;;;;;;;5.47;3.47;;;;;;;;;;5015955;28;20041;-86
2022/08/09 00:48:36;;;;;;;7.97;3.47;;;;;;;;;;5020081;28;20029;-85
2022/08/09 00:51:03;;;;;;;6.05;3.85;;;;;;;;;;5024887;28;20028;-85
2022/08/09 00:53:29;;;;;;;7.18;3.85;;;;;;;;;;5015856;28;20025;-84
2022/08/09 00:55:55;;;;;;;5.20;3.45;;;;;;;;;;5014203;28;20024;-86
2022/08/09 00:58:21;;;;;;;3.95;3.25;;;;;;;;;;5002325;28;20068;-85
2022/08/09 01:00:49;;;;;;;7.78;3.53;;;;;;;;;;5020067;28;20077;-85
2022/08/09 01:03:53;;;;;;;5.15;3.70;;;;;;;;;;5016591;28;20113;-84
2022/08/09 01:07:11;;;;;;;4.78;3.72;;;;;;;;;;5015820;28;20050;-86
2022/08/09 01:10:03;;;;;;;3.72;3.17;;;;;;;;;;4987392;28;20044;-85
2022/08/09 01:12:58;;;;;;;5.43;3.80;;;;;;;;;;5020759;28;21498;-86
2022/08/09 01:15:29;;;;;;;5.82;3.53;;;;;;;;;;5020958;28;20036;-84
2022/08/09 01:18:01;;;;;;;4.97;3.45;;;;;;;;;;5016626;28;20075;-87
2022/08/09 01:20:51;;;;;;;5.80;3.78;;;;;;;;;;5018943;28;20029;-87
2022/08/09 01:23:32;;;;;;;5.70;4.07;;;;;;;;;;5023682;28;20040;-86
2022/08/09 01:26:09;;;;;;;5.78;3.70;;;;;;;;;;5022448;28;20470;-84
2022/08/09 01:28:41;;;;;;;4.43;3.42;;;;;;;;;;5022013;28;20026;-85
2022/08/09 01:31:14;;;;;;;4.72;3.88;;;;;;;;;;5024226;28;20502;-86
2022/08/09 01:33:43;;;;;;;4.25;3.58;;;;;;;;;;5023876;28;20088;-85
2022/08/09 01:36:15;;;;;;;4.82;3.72;;;;;;;;;;5003633;28;20180;-88
2022/08/09 01:38:44;;;;;;;6.93;3.90;;;;;;;;;;5024438;28;20033;-87
2022/08/09 01:41:20;;;;;;;6.82;3.90;;;;;;;;;;5005902;28;20025;-84
2022/08/09 01:43:49;;;;;;;4.97;3.85;;;;;;;;;;5025115;28;20057;-88
2022/08/09 01:46:16;;;;;;;4.72;3.67;;;;;;;;;;5020761;28;20026;-85
2022/08/09 01:48:44;;;;;;;7.57;3.42;;;;;;;;;;5020432;28;20108;-84
2022/08/09 01:51:11;;;;;;;5.88;3.78;;;;;;;;;;5022400;28;20030;-85
2022/08/09 01:53:37;;;;;;;4.03;3.40;;;;;;;;;;5023775;28;20025;-85
2022/08/09 01:56:04;;;;;;;7.07;3.72;;;;;;;;;;5023787;28;20378;-86
2022/08/09 01:58:32;;;;;;;5.90;3.63;;;;;;;;;;5022367;28;20430;-86
2022/08/09 02:00:59;;;;;;;6.80;4.50;;;;;;;;;;5022999;28;20378;-87
2022/08/09 02:03:28;;;;;;;5.10;4.30;;;;;;;;;;5022384;28;20034;-85
2022/08/09 02:05:55;;;;;;;7.38;4.22;;;;;;;;;;5020791;28;20473;-85
2022/08/09 02:08:23;;;;;;;4.38;3.65;;;;;;;;;;5017682;28;20026;-87
2022/08/09 02:10:53;;;;;;;5.00;3.65;;;;;;;;;;5021982;28;20104;-85
2022/08/09 02:13:21;;;;;;;7.05;3.90;;;;;;;;;;5020195;28;20156;-86
2022/08/09 02:15:50;;;;;;;3.75;3.20;;;;;;;;;;5023983;28;20041;-83
2022/08/09 02:18:19;;;;;;;4.78;3.45;;;;;;;;;;5021899;28;20042;-83
2022/08/09 02:20:48;;;;;;;5.23;3.80;;;;;;;;;;5024697;28;20492;-86
2022/08/09 02:23:19;;;;;;;5.90;4.25;;;;;;;;;;5007561;28;20298;-83
2022/08/09 02:25:49;;;;;;;6.28;3.97;;;;;;;;;;5022359;28;20040;-84
2022/08/09 02:28:23;;;;;;;5.47;4.50;;;;;;;;;;5022673;28;20021;-83
2022/08/09 02:31:06;;;;;;;7.90;4.35;;;;;;;;;;5022023;28;20160;-83
2022/08/09 02:33:37;;;;;;;6.95;4.07;;;;;;;;;;5020806;28;20156;-84
2022/08/09 02:36:10;;;;;;;6.63;4.60;;;;;;;;;;5023071;28;20425;-85
2022/08/09 02:38:44;;;;;;;6.05;4.50;;;;;;;;;;5022323;28;20022;-85
2022/08/09 02:41:14;;;;;;;6.78;4.15;;;;;;;;;;5017259;28;20550;-86
2022/08/09 02:43:41;;;;;;;9.70;4.60;;;;;;;;;;5023717;28;20053;-85
2022/08/09 02:46:08;;;;;;;4.90;4.20;;;;;;;;;;5021851;28;20033;-85
2022/08/09 02:48:36;;;;;;;5.82;4.57;;;;;;;;;;5024515;28;20043;-85
2022/08/09 02:51:07;;;;;;;5.20;4.38;;;;;;;;;;5005437;28;20371;-86
2022/08/09 02:53:38;;;;;;;4.63;4.00;;;;;;;;;;5015011;28;20123;-86
2022/08/09 02:56:09;;;;;;;6.32;3.80;;;;;;;;;;5019658;28;20057;-86
2022/08/09 02:58:35;;;;;;;6.47;4.43;;;;;;;;;;5003312;28;20030;-84
2022/08/09 03:01:02;;;;;;;7.80;4.03;;;;;;;;;;5025097;28;20025;-84
2022/08/09 03:03:28;;;;;;;5.75;4.32;;;;;;;;;;5011966;28;20108;-85
2022/08/09 03:05:57;;;;;;;7.10;4.53;;;;;;;;;;5022882;28;20053;-87
2022/08/09 03:08:23;;;;;;;7.47;4.67;;;;;;;;;;5018669;28;20040;-87
2022/08/09 03:10:50;;;;;;;6.25;3.92;;;;;;;;;;5021577;28;20032;-85
2022/08/09 03:13:19;;;;;;;4.95;4.10;;;;;;;;;;5019785;28;20026;-85
2022/08/09 03:15:46;;;;;;;5.75;4.32;;;;;;;;;;5020482;28;20041;-84
2022/08/09 03:18:12;;;;;;;6.88;4.57;;;;;;;;;;5019792;28;20474;-85
2022/08/09 03:20:39;;;;;;;7.07;4.13;;;;;;;;;;5019874;28;20030;-86
2022/08/09 03:23:06;;;;;;;8.60;4.10;;;;;;;;;;5027201;28;20465;-85
2022/08/09 03:25:32;;;;;;;4.85;3.97;;;;;;;;;;5016259;28;20383;-85
2022/08/09 03:27:59;;;;;;;6.07;4.40;;;;;;;;;;5016659;28;20041;-87
2022/08/09 03:30:26;;;;;;;6.20;4.20;;;;;;;;;;5021564;28;20056;-83
2022/08/09 03:32:54;;;;;;;5.80;4.00;;;;;;;;;;5019918;28;20386;-84
2022/08/09 03:35:20;;;;;;;4.88;3.92;;;;;;;;;;5017314;28;20029;-86
2022/08/09 03:37:45;;;;;;;5.20;3.65;;;;;;;;;;5017519;28;20041;-86
2022/08/09 03:40:12;;;;;;;5.72;3.55;;;;;;;;;;5016546;28;20386;-85
2022/08/09 03:42:38;;;;;;;4.78;3.10;;;;;;;;;;5021370;28;20069;-84
2022/08/09 03:45:04;;;;;;;4.30;3.58;;;;;;;;;;5001458;28;20037;-86
2022/08/09 03:47:30;;;;;;;4.40;3.50;;;;;;;;;;5020424;28;20108;-85
2022/08/09 03:49:56;;;;;;;4.07;3.55;;;;;;;;;;5013577;28;20447;-86
2022/08/09 03:52:22;;;;;;;3.95;3.22;;;;;;;;;;5018729;28;20026;-86
2022/08/09 03:54:51;;;;;;;4.93;3.60;;;;;;;;;;5002873;28;20052;-84
2022/08/09 03:57:17;;;;;;;5.00;3.40;;;;;;;;;;5024013;28;20048;-85
2022/08/09 03:59:43;;;;;;;4.95;3.45;;;;;;;;;;5013771;28;20520;-85
2022/08/09 04:02:09;;;;;;;6.75;3.80;;;;;;;;;;5017924;28;20037;-85
2022/08/09 04:04:35;;;;;;;6.05;4.07;;;;;;;;;;5021680;28;20075;-85
2022/08/09 04:07:02;;;;;;;7.40;3.65;;;;;;;;;;5006958;28;20030;-85
2022/08/09 04:09:27;;;;;;;4.53;3.40;;;;;;;;;;5009002;28;20515;-86
2022/08/09 04:11:53;;;;;;;4.22;3.47;;;;;;;;;;5012288;28;20112;-84
2022/08/09 04:14:20;;;;;;;7.80;3.63;;;;;;;;;;5003705;28;20030;-86
2022/08/09 04:16:46;;;;;;;6.28;3.80;;;;;;;;;;5002402;28;20033;-82
2022/08/09 04:19:12;;;;;;;5.95;4.10;;;;;;;;;;5021848;28;20048;-83
2022/08/09 04:21:38;;;;;;;4.90;3.53;;;;;;;;;;5010005;28;20026;-86
2022/08/09 04:24:05;;;;;;;5.60;4.00;;;;;;;;;;5017956;28;20050;-85
2022/08/09 04:26:30;;;;;;;4.78;3.83;;;;;;;;;;5010723;28;20068;-83
2022/08/09 04:28:56;;;;;;;4.70;3.53;;;;;;;;;;5008754;28;20030;-85
2022/08/09 04:31:21;;;;;;;4.15;3.38;;;;;;;;;;5008916;28;20030;-85
2022/08/09 04:33:46;;;;;;;4.75;3.67;;;;;;;;;;5016434;28;20022;-83
2022/08/09 04:36:12;;;;;;;3.90;3.50;;;;;;;;;;5002526;28;20386;-85
2022/08/09 04:38:37;;;;;;;4.38;3.63;;;;;;;;;;5008687;28;20030;-87
2022/08/09 04:41:03;;;;;;;4.45;3.70;;;;;;;;;;5012805;28;20057;-83
2022/08/09 04:43:28;;;;;;;6.72;3.83;;;;;;;;;;4999098;28;20049;-86
2022/08/09 04:45:54;;;;;;;5.35;4.20;;;;;;;;;;4995512;28;20033;-86
2022/08/09 04:48:20;;;;;;;4.55;3.75;;;;;;;;;;5008006;28;20036;-86
2022/08/09 04:50:45;;;;;;;6.38;4.10;;;;;;;;;;4994919;28;20025;-84
2022/08/09 04:53:11;;;;;;;10.18;4.75;;;;;;;;;;5018960;28;20057;-87
2022/08/09 04:55:37;;;;;;;8.10;5.45;;;;;;;;;;5015678;28;20014;-85
2022/08/09 04:58:04;;;;;;;5.75;4.93;;;;;;;;;;4999144;28;20104;-85
2022/08/09 05:00:29;;;;;;;6.28;5.22;;;;;;;;;;4995955;28;20045;-85
2022/08/09 05:02:55;;;;;;;6.82;5.25;;;;;;;;;;5017416;28;20061;-85
2022/08/09 05:05:22;;;;;;;7.13;5.50;;;;;;;;;;5016407;28;20025;-87
2022/08/09 05:07:47;;;;;;;9.10;5.85;;;;;;;;;;5013315;28;20044;-87
2022/08/09 05:10:13;;;;;;;6.60;5.90;;;;;;;;;;5019416;28;20477;-83
2022/08/09 05:12:40;;;;;;;8.43;6.18;;;;;;;;;;5009431;28;20049;-86
2022/08/09 05:15:06;;;;;;;7.03;5.32;;;;;;;;;;5009113;28;20025;-85
2022/08/09 05:17:31;;;;;;;8.23;5.85;;;;;;;;;;5009394;28;20500;-86
2022/08/09 05:19:57;;;;;;;8.80;5.93;;;;;;;;;;5026340;28;20045;-81
2022/08/09 05:22:22;;;;;;;8.35;6.65;;;;;;;;;;5016623;28;20025;-85
2022/08/09 05:24:48;;;;;;;11.35;8.48;;;;;;;;;;5007222;28;20037;-83
2022/08/09 05:27:13;;;;;;;11.13;7.18;;;;;;;;;;5010425;28;20151;-86
2022/08/09 05:29:38;;;;;;;12.50;7.70;;;;;;;;;;5010667;28;20109;-81
2022/08/09 05:32:04;;;;;;;13.48;6.97;;;;;;;;;;5012992;28;20030;-85
2022/08/09 05:34:30;;;;;;;9.32;6.10;;;;;;;;;;5012107;28;20475;-84
2022/08/09 05:36:57;;;;;;;8.07;5.70;;;;;;;;;;5015024;28;20030;-87
2022/08/09 05:39:23;;;;;;;12.63;6.28;;;;;;;;;;5017784;28;20116;-89
2022/08/09 05:41:49;;;;;;;15.43;6.30;;;;;;;;;;5016046;28;20799;-86
2022/08/09 05:44:16;;;;;;;9.88;6.20;;;;;;;;;;5016263;28;20053;-82
2022/08/09 05:46:41;;;;;;;7.45;5.78;;;;;;;;;;5019911;28;20393;-85
2022/08/09 05:49:07;;;;;;;9.90;6.35;;;;;;;;;;5015825;28;20034;-84
2022/08/09 05:51:32;;;;;;;9.60;6.78;;;;;;;;;;5016806;28;20033;-84
2022/08/09 05:53:58;;;;;;;11.38;7.75;;;;;;;;;;5022001;28;20041;-84
2022/08/09 05:56:24;;;;;;;11.68;7.75;;;;;;;;;;5024101;28;20022;-83
2022/08/09 05:58:50;;;;;;;10.15;7.93;;;;;;;;;;5017213;28;20535;-87
2022/08/09 06:01:15;;;;;;;10.95;7.40;;;;;;;;;;5001019;28;20025;-86
2022/08/09 06:03:41;;;;;;;11.05;9.30;;;;;;;;;;5016742;28;20026;-86
2022/08/09 06:06:06;;;;;;;50.63;29.63;;;;;;;;;;5017101;28;20033;-86
2022/08/09 06:08:32;;;;;;;12.18;8.00;;;;;;;;;;5000527;28;20113;-86
2022/08/09 06:10:57;;;;;;;12.45;10.10;;;;;;;;;;4995405;28;20544;-85
2022/08/09 06:13:24;;;;;;;13.98;9.05;;;;;;;;;;5000641;28;20578;-85
2022/08/09 06:15:50;;;;;;;14.57;10.15;;;;;;;;;;5016326;28;20470;-83
2022/08/09 06:18:15;;;;;;;29.67;24.08;;;;;;;;;;5015234;28;20116;-84
2022/08/09 06:20:41;;;;;;;22.33;17.60;;;;;;;;;;5017712;28;20443;-82
2022/08/09 06:23:06;;;;;;;18.48;12.50;;;;;;;;;;5005432;28;20033;-84
2022/08/09 06:25:32;;;;;;;11.48;9.43;;;;;;;;;;5016980;28;20026;-83
2022/08/09 06:27:58;;;;;;;12.93;8.77;;;;;;;;;;5018774;28;20041;-82
2022/08/09 06:30:24;;;;;;;12.00;9.52;;;;;;;;;;5018547;28;20116;-85
2022/08/09 06:32:51;;;;;;;12.95;9.15;;;;;;;;;;5021760;28;20029;-84
2022/08/09 06:35:17;;;;;;;10.07;8.80;;;;;;;;;;5030945;28;20434;-84
2022/08/09 06:37:43;;;;;;;11.15;9.15;;;;;;;;;;5004642;28;20367;-83
2022/08/09 06:40:09;;;;;;;12.60;9.52;;;;;;;;;;5003632;28;20127;-84
2022/08/09 06:42:34;;;;;;;13.75;9.82;;;;;;;;;;5004671;28;20147;-83
2022/08/09 06:45:00;;;;;;;13.82;9.90;;;;;;;;;;5023938;28;20222;-87
2022/08/09 06:47:26;;;;;;;15.30;11.65;;;;;;;;;;5022323;28;20026;-85
2022/08/09 06:49:52;;;;;;;16.13;10.45;;;;;;;;;;5018846;28;20018;-84
2022/08/09 06:52:17;;;;;;;12.00;10.05;;;;;;;;;;5022332;28;20037;-86
2022/08/09 06:54:43;;;;;;;11.40;10.15;;;;;;;;;;5020967;28;20113;-85
2022/08/09 06:57:10;;;;;;;15.88;10.55;;;;;;;;;;5019651;28;20025;-85
2022/08/09 06:59:36;;;;;;;14.15;10.80;;;;;;;;;;5017391;28;20029;-86
2022/08/09 07:02:01;;;;;;;21.67;13.68;;;;;;;;;;5020444;28;20037;-85
2022/08/09 07:04:27;;;;;;;20.58;17.67;;;;;;;;;;5025529;28;20025;-83
2022/08/09 07:06:53;;;;;;;13.45;10.90;;;;;;;;;;5026059;28;20025;-84
2022/08/09 07:09:18;;;;;;;13.52;10.75;;;;;;;;;;5018343;28;20030;-83
2022/08/09 07:11:43;;;;;;;15.75;12.45;;;;;;;;;;5017329;28;20512;-83
2022/08/09 07:14:13;;;;;;;14.32;10.40;;;;;;;;;;5020919;28;20036;-87
2022/08/09 07:16:38;;;;;;;12.15;8.18;;;;;;;;;;5016487;28;20079;-84
2022/08/09 07:19:04;;;;;;;12.23;9.30;;;;;;;;;;5001701;28;20037;-83
2022/08/09 07:21:30;;;;;;;14.30;7.93;;;;;;;;;;5021459;28;20031;-85
2022/08/09 07:23:55;;;;;;;11.40;8.20;;;;;;;;;;5016906;28;20026;-83
2022/08/09 07:26:21;;;;;;;19.55;14.88;;;;;;;;;;5011745;28;20025;-83
2022/08/09 07:28:46;;;;;;;14.50;8.48;;;;;;;;;;5014268;28;20068;-83
2022/08/09 07:31:11;;;;;;;14.63;8.00;;;;;;;;;;5019122;28;20028;-84
2022/08/09 07:33:37;;;;;;;13.77;9.20;;;;;;;;;;5020025;28;20482;-83
2022/08/09 07:36:03;;;;;;;10.40;8.40;;;;;;;;;;5020177;28;20022;-85
2022/08/09 07:38:28;;;;;;;10.73;7.47;;;;;;;;;;5018214;28;20064;-87
2022/08/09 07:40:53;;;;;;;10.98;7.78;;;;;;;;;;5004584;28;20021;-85
2022/08/09 07:43:19;;;;;;;9.98;6.80;;;;;;;;;;5003833;28;20045;-88
2022/08/09 07:45:45;;;;;;;15.13;7.60;;;;;;;;;;5009894;28;20038;-84
2022/08/09 07:48:11;;;;;;;11.52;6.93;;;;;;;;;;5020731;28;20180;-88
2022/08/09 07:50:39;;;;;;;9.38;5.90;;;;;;;;;;5016793;28;20033;-87
2022/08/09 07:53:06;;;;;;;11.38;6.35;;;;;;;;;;5007052;28;20033;-84
2022/08/09 07:55:32;;;;;;;9.35;6.57;;;;;;;;;;5002517;28;20030;-88
2022/08/09 07:57:58;;;;;;;9.38;6.03;;;;;;;;;;5007476;28;20564;-83
2022/08/09 08:00:24;;;;;;;7.72;5.88;;;;;;;;;;5019140;28;20069;-85
2022/08/09 08:02:50;;;;;;;7.63;6.00;;;;;;;;;;5017902;28;20029;-84
2022/08/09 08:05:15;;;;;;;10.88;6.63;;;;;;;;;;4995403;28;20033;-85
2022/08/09 08:07:41;;;;;;;8.93;6.82;;;;;;;;;;5002230;28;20121;-84
2022/08/09 08:10:08;;;;;;;7.88;6.35;;;;;;;;;;5018490;28;20029;-87
2022/08/09 08:12:33;;;;;;;8.55;6.18;;;;;;;;;;5019491;28;20370;-84
2022/08/09 08:14:59;;;;;;;11.65;7.68;;;;;;;;;;5020975;28;20030;-86
2022/08/09 08:17:24;;;;;;;13.63;6.25;;;;;;;;;;5017688;28;20401;-85
2022/08/09 08:19:49;;;;;;;13.88;5.90;;;;;;;;;;5015366;28;20033;-87
2022/08/09 08:22:15;;;;;;;7.40;5.70;;;;;;;;;;5024256;28;20466;-86
2022/08/09 08:24:40;;;;;;;8.02;5.93;;;;;;;;;;5017275;28;20062;-85
2022/08/09 08:27:07;;;;;;;7.50;4.65;;;;;;;;;;5002942;28;20037;-85
2022/08/09 08:29:32;;;;;;;9.02;4.82;;;;;;;;;;5012869;28;20382;-87
2022/08/09 08:31:57;;;;;;;6.20;3.85;;;;;;;;;;5021692;28;20025;-84
2022/08/09 08:34:23;;;;;;;4.85;3.88;;;;;;;;;;5013383;28;20037;-84
2022/08/09 08:36:48;;;;;;;5.30;4.30;;;;;;;;;;5010785;28;20057;-86
2022/08/09 08:39:14;;;;;;;8.80;4.32;;;;;;;;;;4995824;28;20053;-84
2022/08/09 08:41:40;;;;;;;6.80;4.10;;;;;;;;;;5023026;28;20033;-89
2022/08/09 08:44:07;;;;;;;8.00;3.83;;;;;;;;;;5015776;28;20120;-84
2022/08/09 08:46:38;;;;;;;7.22;3.95;;;;;;;;;;4990936;28;20475;-85
2022/08/09 08:49:04;;;;;;;7.00;4.10;;;;;;;;;;5019333;28;20025;-84
2022/08/09 08:51:30;;;;;;;4.25;3.17;;;;;;;;;;5018957;28;20492;-83
2022/08/09 08:53:56;;;;;;;3.97;3.55;;;;;;;;;;5017871;28;20457;-85
2022/08/09 08:56:22;;;;;;;5.00;3.30;;;;;;;;;;5011414;28;20054;-85
2022/08/09 08:58:47;;;;;;;5.65;3.00;;;;;;;;;;5009926;28;20035;-83
2022/08/09 09:01:15;;;;;;;7.38;3.47;;;;;;;;;;5019534;28;20041;-86
2022/08/09 09:03:41;;;;;;;5.90;3.83;;;;;;;;;;5000684;28;20105;-86
2022/08/09 09:06:12;;;;;;;7.82;3.67;;;;;;;;;;5010197;28;20117;-84
2022/08/09 09:08:39;;;;;;;4.72;3.70;;;;;;;;;;5007201;28;20080;-83
2022/08/09 09:11:06;;;;;;;5.57;3.00;;;;;;;;;;5014808;28;20022;-86
2022/08/09 09:13:38;;;;;;;5.30;2.97;;;;;;;;;;5010309;28;20030;-86
2022/08/09 09:16:04;;;;;;;5.80;2.88;;;;;;;;;;5021087;28;20022;-87
2022/08/09 09:18:29;;;;;;;7.03;3.35;;;;;;;;;;5022748;28;20083;-85
2022/08/09 09:20:55;;;;;;;6.35;3.10;;;;;;;;;;5016093;28;20029;-85
2022/08/09 09:23:53;;;;;;;6.75;3.00;;;;;;;;;;5012561;28;20083;-85
2022/08/09 09:26:22;;;;;;;3.58;2.05;;;;;;;;;;4978056;28;20542;-86
2022/08/09 09:28:48;;;;;;;6.50;3.17;;;;;;;;;;5013598;28;20057;-88
2022/08/09 09:31:18;;;;;;;3.38;2.90;;;;;;;;;;4995366;28;20085;-86
2022/08/09 09:33:44;;;;;;;10.20;3.33;;;;;;;;;;5021308;28;20365;-85
2022/08/09 09:36:15;;;;;;;3.63;2.28;;;;;;;;;;5007814;28;20034;-84
2022/08/09 09:38:58;;;;;;;6.60;2.00;;;;;;;;;;5007328;28;20528;-84
2022/08/09 09:41:26;;;;;;;3.65;1.90;;;;;;;;;;5001813;28;20025;-86
2022/08/09 09:43:58;;;;;;;2.28;1.52;;;;;;;;;;5023458;28;20438;-87
2022/08/09 09:46:31;;;;;;;4.90;2.65;;;;;;;;;;5001279;28;20033;-88
2022/08/09 09:49:03;;;;;;;2.65;2.30;;;;;;;;;;5023660;28;20381;-87
2022/08/09 09:51:29;;;;;;;4.75;2.50;;;;;;;;;;5015186;28;20076;-87
2022/08/09 09:54:03;;;;;;;3.63;2.28;;;;;;;;;;5003656;28;20394;-86
2022/08/09 09:56:34;;;;;;;6.43;2.40;;;;;;;;;;5019234;28;20113;-86
2022/08/09 09:59:00;;;;;;;7.50;2.35;;;;;;;;;;5016052;28;20034;-85
2022/08/09 10:01:27;;;;;;;4.15;2.50;;;;;;;;;;5001513;28;20102;-86
2022/08/09 10:03:53;;;;;;;4.40;2.60;;;;;;;;;;5010053;28;20032;-84
2022/08/09 10:06:18;;;;;;;5.00;2.53;;;;;;;;;;5024647;28;20474;-86
2022/08/09 10:08:46;;;;;;;6.40;2.88;;;;;;;;;;5023959;28;20041;-85
2022/08/09 10:11:24;;;;;;;3.65;2.85;;;;;;;;;;5004523;28;20094;-86
2022/08/09 10:13:52;;;;;;;7.47;2.75;;;;;;;;;;5012917;28;20371;-85
2022/08/09 10:16:28;;;;;;;4.57;2.70;;;;;;;;;;5013312;28;20025;-82
2022/08/09 10:18:56;;;;;;;5.95;2.13;;;;;;;;;;5014606;28;20041;-83
2022/08/09 10:21:23;;;;;;;5.88;1.95;;;;;;;;;;5018644;28;20498;-81
2022/08/09 10:23:49;;;;;;;4.65;1.85;;;;;;;;;;5018147;28;20403;-83
2022/08/09 10:26:15;;;;;;;3.10;1.60;;;;;;;;;;5024440;28;20122;-83
2022/08/09 10:28:42;;;;;;;2.60;2.00;;;;;;;;;;5010832;28;20037;-83
2022/08/09 10:31:10;;;;;;;3.15;1.80;;;;;;;;;;5016343;28;20030;-84
2022/08/09 10:33:36;;;;;;;2.20;1.65;;;;;;;;;;5009767;28;20026;-81
2022/08/09 10:36:06;;;;;;;4.70;1.80;;;;;;;;;;5009261;28;20029;-82
2022/08/09 10:38:32;;;;;;;7.13;2.20;;;;;;;;;;5011460;28;20029;-80
2022/08/09 10:40:58;;;;;;;4.00;2.20;;;;;;;;;;5013839;28;20104;-82
2022/08/09 10:43:25;;;;;;;2.70;2.20;;;;;;;;;;5014719;28;20447;-81
2022/08/09 10:45:51;;;;;;;4.03;1.88;;;;;;;;;;4998896;28;20032;-84
2022/08/09 10:48:25;;;;;;;5.30;2.00;;;;;;;;;;5001887;28;20085;-81
2022/08/09 10:51:05;;;;;;;2.75;1.70;;;;;;;;;;4999752;28;20126;-81
2022/08/09 10:53:31;;;;;;;3.45;1.77;;;;;;;;;;5004372;28;20026;-82
2022/08/09 10:56:16;;;;;;;2.97;1.75;;;;;;;;;;5010530;28;20105;-83
2022/08/09 10:58:43;;;;;;;3.25;1.90;;;;;;;;;;5008966;28;20474;-87
2022/08/09 11:01:46;;;;;;;7.90;2.22;;;;;;;;;;4996339;28;20042;-86
2022/08/09 11:04:13;;;;;;;5.53;1.70;;;;;;;;;;4930746;29;20551;-87
2022/08/09 11:06:41;;;;;;;5.15;1.40;;;;;;;;;;4973820;28;20046;-88
2022/08/09 11:09:46;;;;;;;4.22;1.90;;;;;;;;;;4996219;28;20128;-86
2022/08/09 11:12:19;;;;;;;4.05;1.75;;;;;;;;;;4992368;28;20034;-84
2022/08/09 11:15:00;;;;;;;4.43;1.73;;;;;;;;;;4997455;28;20428;-84
2022/08/09 11:17:25;;;;;;;5.88;2.05;;;;;;;;;;4999780;28;20379;-87
2022/08/09 11:20:00;;;;;;;4.40;1.70;;;;;;;;;;5002898;28;20025;-84
2022/08/09 11:22:43;;;;;;;6.00;1.70;;;;;;;;;;4999751;28;20121;-88
2022/08/09 11:25:17;;;;;;;3.35;2.00;;;;;;;;;;5008436;28;20026;-87
2022/08/09 11:27:52;;;;;;;2.95;2.10;;;;;;;;;;5003714;28;20021;-87
2022/08/09 11:30:22;;;;;;;6.55;1.75;;;;;;;;;;5007006;28;20453;-87
2022/08/09 11:32:49;;;;;;;2.33;1.73;;;;;;;;;;5006291;28;20026;-85
2022/08/09 11:35:37;;;;;;;5.50;2.10;;;;;;;;;;5003450;28;20022;-88
2022/08/09 11:38:15;;;;;;;2.53;1.77;;;;;;;;;;5005939;28;20513;-86
2022/08/09 11:41:04;;;;;;;5.32;2.08;;;;;;;;;;5002125;28;20037;-88
2022/08/09 11:43:29;;;;;;;4.07;2.78;;;;;;;;;;4990508;28;20045;-85
2022/08/09 11:46:04;;;;;;;5.85;2.60;;;;;;;;;;5024378;28;20047;-86
2022/08/09 11:48:52;;;;;;;2.92;2.28;;;;;;;;;;4996356;28;20153;-87
2022/08/09 11:51:20;;;;;;;4.05;2.40;;;;;;;;;;5006321;28;20026;-89
2022/08/09 11:53:48;;;;;;;3.47;2.40;;;;;;;;;;4983457;28;20038;-86
2022/08/09 11:56:13;;;;;;;8.48;2.60;;;;;;;;;;5003562;28;20051;-85
2022/08/09 11:58:52;;;;;;;6.18;2.63;;;;;;;;;;5020878;28;20080;-88
2022/08/09 12:01:30;;;;;;;4.25;2.65;;;;;;;;;;5016387;28;20482;-85
2022/08/09 12:04:00;;;;;;;5.55;2.78;;;;;;;;;;4996328;28;20405;-87
2022/08/09 12:06:26;;;;;;;4.38;2.92;;;;;;;;;;5021833;28;20033;-85
2022/08/09 12:08:53;;;;;;;5.38;2.47;;;;;;;;;;5018268;28;20029;-88
2022/08/09 12:11:21;;;;;;;3.53;2.40;;;;;;;;;;5019049;28;20034;-84
2022/08/09 12:13:50;;;;;;;6.82;2.70;;;;;;;;;;5019071;28;20063;-87
2022/08/09 12:16:28;;;;;;;5.40;2.70;;;;;;;;;;5023120;28;20026;-85
2022/08/09 12:18:54;;;;;;;3.10;2.60;;;;;;;;;;5015479;28;20116;-84
2022/08/09 12:21:29;;;;;;;5.35;2.60;;;;;;;;;;5020570;28;20076;-86
2022/08/09 12:23:55;;;;;;;5.05;2.75;;;;;;;;;;5014961;28;20406;-86
2022/08/09 12:26:22;;;;;;;7.25;2.72;;;;;;;;;;5001261;28;20033;-86
2022/08/09 12:28:49;;;;;;;5.38;2.50;;;;;;;;;;5024734;28;20120;-87
2022/08/09 12:31:18;;;;;;;3.92;2.30;;;;;;;;;;5017788;28;20029;-87
2022/08/09 12:33:43;;;;;;;7.65;3.28;;;;;;;;;;5018828;28;20718;-85
2022/08/09 12:36:09;;;;;;;3.80;3.03;;;;;;;;;;5023057;28;20029;-85
2022/08/09 12:38:37;;;;;;;7.00;3.40;;;;;;;;;;5017808;28;20053;-86
2022/08/09 12:41:03;;;;;;;4.47;2.37;;;;;;;;;;4995567;28;20110;-82
2022/08/09 12:43:29;;;;;;;4.00;2.42;;;;;;;;;;5021710;28;20097;-86
2022/08/09 12:45:56;;;;;;;5.65;2.78;;;;;;;;;;4995074;28;20549;-83
2022/08/09 12:48:22;;;;;;;4.72;2.55;;;;;;;;;;5012714;28;20032;-87
2022/08/09 12:50:49;;;;;;;3.55;2.63;;;;;;;;;;5008542;28;20104;-85
2022/08/09 12:53:33;;;;;;;4.00;2.58;;;;;;;;;;5017987;28;20034;-86
2022/08/09 12:56:17;;;;;;;2.97;2.58;;;;;;;;;;5007763;28;20042;-87
2022/08/09 12:59:04;;;;;;;4.20;2.53;;;;;;;;;;5012829;28;20025;-85
2022/08/09 13:01:29;;;;;;;4.63;2.63;;;;;;;;;;5011893;28;20613;-85
2022/08/09 13:04:00;;;;;;;5.57;2.40;;;;;;;;;;5008641;28;20025;-86
2022/08/09 13:06:27;;;;;;;5.20;2.42;;;;;;;;;;5017163;28;20378;-84
2022/08/09 13:08:57;;;;;;;3.13;2.47;;;;;;;;;;4997246;28;20119;-85
2022/08/09 13:11:31;;;;;;;2.97;2.30;;;;;;;;;;4999956;28;20151;-85
2022/08/09 13:13:57;;;;;;;6.50;2.80;;;;;;;;;;5016069;28;20129;-85
2022/08/09 13:16:37;;;;;;;3.53;2.55;;;;;;;;;;4992247;28;20477;-84
2022/08/09 13:19:03;;;;;;;5.53;3.38;;;;;;;;;;5011772;28;20030;-85
2022/08/09 13:21:29;;;;;;;4.20;2.88;;;;;;;;;;5016808;28;20025;-86
2022/08/09 13:24:11;;;;;;;3.75;2.58;;;;;;;;;;5011435;28;20029;-86
2022/08/09 13:26:41;;;;;;;5.40;2.72;;;;;;;;;;5023090;28;20034;-91
2022/08/09 13:29:06;;;;;;;4.88;2.80;;;;;;;;;;5022568;28;20100;-87
2022/08/09 13:31:32;;;;;;;6.88;3.13;;;;;;;;;;5002191;28;20030;-82
2022/08/09 13:33:58;;;;;;;7.07;2.50;;;;;;;;;;5023480;28;20025;-86
2022/08/09 13:36:24;;;;;;;4.90;2.40;;;;;;;;;;5008485;28;20026;-84
2022/08/09 13:38:49;;;;;;;4.70;2.67;;;;;;;;;;5023788;28;20466;-84
2022/08/09 13:41:21;;;;;;;3.10;2.15;;;;;;;;;;5014803;28;20056;-85
2022/08/09 13:43:47;;;;;;;4.78;2.60;;;;;;;;;;5018817;28;20525;-83
2022/08/09 13:46:13;;;;;;;4.18;2.50;;;;;;;;;;5025470;28;20065;-83
2022/08/09 13:48:38;;;;;;;4.25;2.55;;;;;;;;;;5005793;28;20057;-83
2022/08/09 13:51:03;;;;;;;4.28;3.00;;;;;;;;;;5017617;28;20029;-85
2022/08/09 13:53:29;;;;;;;5.38;2.55;;;;;;;;;;5021559;28;20028;-85
2022/08/09 13:55:54;;;;;;;4.28;2.70;;;;;;;;;;4995044;28;20497;-85
2022/08/09 13:58:20;;;;;;;6.63;2.60;;;;;;;;;;5013351;28;20108;-86
2022/08/09 14:00:45;;;;;;;4.13;2.95;;;;;;;;;;5017495;28;20034;-87
2022/08/09 14:03:11;;;;;;;4.28;2.65;;;;;;;;;;5013663;28;20426;-85
2022/08/09 14:05:36;;;;;;;5.55;2.55;;;;;;;;;;5002053;28;20026;-85
2022/08/09 14:08:04;;;;;;;4.45;2.70;;;;;;;;;;5022794;28;20029;-85
2022/08/09 14:10:30;;;;;;;5.60;2.92;;;;;;;;;;5021888;28;20033;-86
2022/08/09 14:12:55;;;;;;;3.47;2.17;;;;;;;;;;5026370;28;20026;-86
2022/08/09 14:15:21;;;;;;;6.03;2.70;;;;;;;;;;5017169;28;20026;-86
2022/08/09 14:17:46;;;;;;;4.10;2.40;;;;;;;;;;5020915;28;20030;-87
2022/08/09 14:20:12;;;;;;;4.60;2.65;;;;;;;;;;5016179;28;20037;-84
2022/08/09 14:22:37;;;;;;;4.38;2.70;;;;;;;;;;5017483;28;20065;-86
2022/08/09 14:25:03;;;;;;;4.45;2.60;;;;;;;;;;5011447;28;20033;-86
2022/08/09 14:27:29;;;;;;;4.00;2.85;;;;;;;;;;5012194;28;20030;-89
2022/08/09 14:29:54;;;;;;;4.93;2.42;;;;;;;;;;5017821;28;20033;-86
2022/08/09 14:32:20;;;;;;;6.38;2.53;;;;;;;;;;5012109;28;20040;-84
2022/08/09 14:34:45;;;;;;;5.10;2.85;;;;;;;;;;5015650;28;20057;-85
2022/08/09 14:37:11;;;;;;;4.40;3.05;;;;;;;;;;5021535;28;20117;-86
2022/08/09 14:39:38;;;;;;;3.30;2.20;;;;;;;;;;4994495;28;20064;-87
2022/08/09 14:42:04;;;;;;;5.00;2.53;;;;;;;;;;5018523;28;20029;-86
2022/08/09 14:44:29;;;;;;;4.82;2.67;;;;;;;;;;5017153;28;20047;-88
2022/08/09 14:46:55;;;;;;;3.33;2.35;;;;;;;;;;5007168;28;20042;-85
2022/08/09 14:49:20;;;;;;;3.75;2.53;;;;;;;;;;5020274;28;20025;-89